Svend Maersk — OYJS2 — position and weather

sailwx.info

Track history (hours):
 
Tides and Currents Weather Stations Pressure Air Temp Water Temp Dewpoint Dewpoint Depression Visibility Wind Speed Wind Dir Waves Ship Positions

Svend Maersk

Last reported at 2014-Oct-13 01:33 UTC. Time now 2014-Oct-26 03:42 UTC.
Position N 34°40' W 133°20'.
Warning: this ship's position is 13 days out of date.

Type: Ship (hazmat cat A). MMSI: 219791000.

Date/timePositionNaut miles runAvg speedWind from/ knotsBaromVisibWave heightAir tempDewpointWater temp
2014-Oct-13 01:33N 34°40' W 133°20'34614.1
2014-Oct-12 01:05N 32°17' W 127°01'1013.7
2014-Oct-12 00:23N 32°13' W 126°51'1214.0
2014-Oct-11 23:33N 32°08' W 126°39'1414.1
2014-Oct-11 22:33N 32°02' W 126°24'1414.2
2014-Oct-11 21:32N 31°56' W 126°09'1513.9
2014-Oct-11 20:28N 31°49' W 125°53'1813.9
2014-Oct-11 19:12N 31°41' W 125°35'3713.9
2014-Oct-11 16:31N 31°24' W 124°55'1313.2
2014-Oct-11 15:30N 31°18' W 124°41'2813.4
2014-Oct-11 13:23N 31°05' W 124°12'1113.5
2014-Oct-11 12:33N 31°00' W 124°00'1313.4
2014-Oct-11 11:33N 30°53' W 123°47'1313.4
2014-Oct-11 10:33N 30°47' W 123°33'1313.4
2014-Oct-11 09:34N 30°41' W 123°19'1413.5
2014-Oct-11 08:33N 30°35' W 123°05'1413.6
2014-Oct-11 07:34N 30°29' W 122°51'1413.5
2014-Oct-11 06:33N 30°22' W 122°37'1313.3
2014-Oct-11 05:33N 30°16' W 122°24'1313.2
2014-Oct-11 04:34N 30°10' W 122°10'1313.2
2014-Oct-11 03:34N 30°03' W 121°57'1313.2
2014-Oct-11 02:34N 29°57' W 121°43'1313.1
2014-Oct-11 01:33N 29°50' W 121°30'1313.2
2014-Oct-11 00:34N 29°44' W 121°17'1413.4
2014-Oct-10 23:33N 29°37' W 121°03'1413.3
2014-Oct-10 22:29N 29°30' W 120°50'1413.5
2014-Oct-10 21:27N 29°23' W 120°36'1213.0
2014-Oct-10 20:33N 29°17' W 120°24'1413.3
2014-Oct-10 19:31N 29°08' W 120°12'1313.5
2014-Oct-10 18:33N 29°00' W 120°00'1413.7
2014-Oct-10 17:33N 28°52' W 119°48'1413.6
2014-Oct-10 16:34N 28°44' W 119°35'1413.3
2014-Oct-10 15:32N 28°36' W 119°23'5513.9
2014-Oct-10 11:33N 28°03' W 118°32'3014.7
2014-Oct-10 09:31N 27°46' W 118°05'2114.8
2014-Oct-10 08:07N 27°33' W 117°47'814.6
2014-Oct-10 07:33N 27°28' W 117°39'1814.3
2014-Oct-10 06:17N 27°16' W 117°23'  
Track history (hours):
 
Tides and Currents Weather Stations Pressure Air Temp Water Temp Dewpoint Dewpoint Depression Visibility Wind Speed Wind Dir Waves Ship Positions

Svend Maersk

Last reported at 2014-Oct-13 01:33 UTC. Time now 2014-Oct-26 03:42 UTC.
Position N 34°40' W 133°20'.
Warning: this ship's position is 13 days out of date.

Type: Ship (hazmat cat A). MMSI: 219791000.

Date/timePositionNaut miles runAvg speedWind from/ knotsBaromVisibWave heightAir tempDewpointWater temp
2014-Oct-13 01:33N 34°40' W 133°20'34614.1
2014-Oct-12 01:05N 32°17' W 127°01'1013.7
2014-Oct-12 00:23N 32°13' W 126°51'1214.0
2014-Oct-11 23:33N 32°08' W 126°39'1414.1
2014-Oct-11 22:33N 32°02' W 126°24'1414.2
2014-Oct-11 21:32N 31°56' W 126°09'1513.9
2014-Oct-11 20:28N 31°49' W 125°53'1813.9
2014-Oct-11 19:12N 31°41' W 125°35'3713.9
2014-Oct-11 16:31N 31°24' W 124°55'1313.2
2014-Oct-11 15:30N 31°18' W 124°41'2813.4
2014-Oct-11 13:23N 31°05' W 124°12'1113.5
2014-Oct-11 12:33N 31°00' W 124°00'1313.4
2014-Oct-11 11:33N 30°53' W 123°47'1313.4
2014-Oct-11 10:33N 30°47' W 123°33'1313.4
2014-Oct-11 09:34N 30°41' W 123°19'1413.5
2014-Oct-11 08:33N 30°35' W 123°05'1413.6
2014-Oct-11 07:34N 30°29' W 122°51'1413.5
2014-Oct-11 06:33N 30°22' W 122°37'1313.3
2014-Oct-11 05:33N 30°16' W 122°24'1313.2
2014-Oct-11 04:34N 30°10' W 122°10'1313.2
2014-Oct-11 03:34N 30°03' W 121°57'1313.2
2014-Oct-11 02:34N 29°57' W 121°43'1313.1
2014-Oct-11 01:33N 29°50' W 121°30'1313.2
2014-Oct-11 00:34N 29°44' W 121°17'1413.4
2014-Oct-10 23:33N 29°37' W 121°03'1413.3
2014-Oct-10 22:29N 29°30' W 120°50'1413.5
2014-Oct-10 21:27N 29°23' W 120°36'1213.0
2014-Oct-10 20:33N 29°17' W 120°24'1413.3
2014-Oct-10 19:31N 29°08' W 120°12'1313.5
2014-Oct-10 18:33N 29°00' W 120°00'1413.7
2014-Oct-10 17:33N 28°52' W 119°48'1413.6
2014-Oct-10 16:34N 28°44' W 119°35'1413.3
2014-Oct-10 15:32N 28°36' W 119°23'5513.9
2014-Oct-10 11:33N 28°03' W 118°32'3014.7
2014-Oct-10 09:31N 27°46' W 118°05'2114.8
2014-Oct-10 08:07N 27°33' W 117°47'814.6
2014-Oct-10 07:33N 27°28' W 117°39'1814.3
2014-Oct-10 06:17N 27°16' W 117°23'  

Dump ship's entire track history